Punta Gorda, FL

1:47 AM EDT on August 30, 2014 (GMT -0400)
Gulf Cove, Fl | Change Station
CLOSE
Current Station
Personal Weather Station
Location: Port Charlotte, FL
Elevation: 20 ft
Nearby Weather Stations

Elev 20 ft 26.95 °N, 82.24 °W | Updated 15 seconds ago

Clear
Clear
77.5 °F
Feels Like 79 °F
N
2.2
Wind Variable Wind from SSE
Gusts 4.7 mph

Today
High -- | Low -- °F
--% Chance of Precip.
Yesterday
High -- | Low -- °F
Precip. -- in
7:07 AM 7:51 PM
Waxing Crescent, 19% visible
Pressure 30.12 in
Visibility 10.0 miles
Clouds Clear
Heat Index 79 °F
Dew Point 77 °F
Humidity 99%
Rainfall 0.00 in
Snow Depth Not available.
UV 0 out of 12
Pollen 4.00 out of 12
Air Quality Not available.
Flu Activity Not available.
METAR KPGD 300453Z AUTO 09006KT 10SM CLR 24/23 A3011 RMK AO2 SLP197 T02440228 403440228 $

More Conditions Fewer Conditions

Pressure 30.12 in
Visibility 10.0 miles
Clouds Clear
Heat Index 79 °F
Dew Point 77 °F
Humidity 99%
Rainfall 0.00 in
Snow Depth Not available.
UV 0 out of 12
Pollen 4.00 out of 12
Air Quality Not available.
Flu Activity Not available.
METAR KPGD 300453Z AUTO 09006KT 10SM CLR 24/23 A3011 RMK AO2 SLP197 T02440228 403440228 $

More Conditions Fewer Conditions

10-Day Weather Forecast

Almanac

Astronomy

Aug. 30, 2014 Rise Set
Actual Time 7:07 AM EDT 7:51 PM EDT
Civil Twilight 6:43 AM EDT 8:14 PM EDT
Nautical Twilight 6:15 AM EDT 8:42 PM EDT
Astronomical Twilight 5:47 AM EDT 9:10 PM EDT
Moon 11:24 AM EDT 10:55 PM EDT
Length of Visible Light 13h 31m
Length of Day
12h 43m
Tomorrow will be 1m 30s shorter.
Waxing Crescent, 19% of the Moon is Illuminated
Today
Waxing Crescent
Sep 2
First Quarter
Sep 8
Full
Sep 15
Last Quarter
Sep 24
New

Today's Extremes

State Highs State Lows

Community

WunderPhotos

Upload Photos

1,748,467 photos uploaded!

Nearby

Snow Depth

Station Depth Elevation
No new snow has been reported.

Earthquake Activity

City Distance Mag. Time & Date
No recent earthquake activity has been reported nearby.
Minimum magnitude displayed is 2.5.

Coastal Water Temperatures

Place Temperature
No Stations Reporting

Nearby Weather Stations